sensor_id;sensor_type;location;lat;lon;timestamp;P1;durP1;ratioP1;P2;durP2;ratioP2
20928;SDS011;21895;47.072;15.132;2024-01-16T00:00:24;4.73;;;3.93;;
20928;SDS011;21895;47.072;15.132;2024-01-16T00:02:51;5.13;;;2.33;;
20928;SDS011;21895;47.072;15.132;2024-01-16T00:05:17;4.60;;;3.00;;
20928;SDS011;21895;47.072;15.132;2024-01-16T00:07:44;18.43;;;3.83;;
20928;SDS011;21895;47.072;15.132;2024-01-16T00:10:11;7.80;;;2.93;;
20928;SDS011;21895;47.072;15.132;2024-01-16T00:12:37;2.90;;;1.60;;
20928;SDS011;21895;47.072;15.132;2024-01-16T00:15:06;3.10;;;2.13;;
20928;SDS011;21895;47.072;15.132;2024-01-16T00:17:33;4.23;;;1.87;;
20928;SDS011;21895;47.072;15.132;2024-01-16T00:20:00;4.87;;;3.07;;
20928;SDS011;21895;47.072;15.132;2024-01-16T00:22:27;3.43;;;2.77;;
20928;SDS011;21895;47.072;15.132;2024-01-16T00:24:54;18.13;;;3.07;;
20928;SDS011;21895;47.072;15.132;2024-01-16T00:27:20;1.20;;;1.10;;
20928;SDS011;21895;47.072;15.132;2024-01-16T00:29:47;5.80;;;2.57;;
20928;SDS011;21895;47.072;15.132;2024-01-16T00:32:14;4.40;;;1.77;;
20928;SDS011;21895;47.072;15.132;2024-01-16T00:34:42;1.60;;;1.37;;
20928;SDS011;21895;47.072;15.132;2024-01-16T00:37:09;7.93;;;2.40;;
20928;SDS011;21895;47.072;15.132;2024-01-16T00:39:35;3.27;;;1.33;;
20928;SDS011;21895;47.072;15.132;2024-01-16T00:42:02;0.43;;;0.43;;
20928;SDS011;21895;47.072;15.132;2024-01-16T00:44:29;2.70;;;1.07;;
20928;SDS011;21895;47.072;15.132;2024-01-16T00:46:56;1.13;;;1.10;;
20928;SDS011;21895;47.072;15.132;2024-01-16T00:49:22;0.90;;;0.90;;
20928;SDS011;21895;47.072;15.132;2024-01-16T00:51:49;2.23;;;1.40;;
20928;SDS011;21895;47.072;15.132;2024-01-16T00:54:16;0.63;;;0.63;;
20928;SDS011;21895;47.072;15.132;2024-01-16T00:56:42;1.47;;;1.37;;
20928;SDS011;21895;47.072;15.132;2024-01-16T00:59:09;4.10;;;1.30;;
20928;SDS011;21895;47.072;15.132;2024-01-16T01:01:38;4.70;;;2.03;;
20928;SDS011;21895;47.072;15.132;2024-01-16T01:04:05;0.57;;;0.57;;
20928;SDS011;21895;47.072;15.132;2024-01-16T01:06:31;0.63;;;0.63;;
20928;SDS011;21895;47.072;15.132;2024-01-16T01:08:58;0.40;;;0.30;;
20928;SDS011;21895;47.072;15.132;2024-01-16T01:11:25;0.57;;;0.53;;
20928;SDS011;21895;47.072;15.132;2024-01-16T01:13:51;5.57;;;1.40;;
20928;SDS011;21895;47.072;15.132;2024-01-16T01:16:19;2.63;;;1.60;;
20928;SDS011;21895;47.072;15.132;2024-01-16T01:18:45;1.87;;;1.47;;
20928;SDS011;21895;47.072;15.132;2024-01-16T01:21:12;1.50;;;0.40;;
20928;SDS011;21895;47.072;15.132;2024-01-16T01:23:39;2.20;;;0.93;;
20928;SDS011;21895;47.072;15.132;2024-01-16T01:26:05;0.50;;;0.50;;
20928;SDS011;21895;47.072;15.132;2024-01-16T01:28:32;3.20;;;1.03;;
20928;SDS011;21895;47.072;15.132;2024-01-16T01:30:59;5.30;;;0.93;;
20928;SDS011;21895;47.072;15.132;2024-01-16T01:33:25;1.20;;;1.10;;
20928;SDS011;21895;47.072;15.132;2024-01-16T01:35:52;0.40;;;0.40;;
20928;SDS011;21895;47.072;15.132;2024-01-16T01:38:19;2.53;;;0.70;;
20928;SDS011;21895;47.072;15.132;2024-01-16T01:40:45;0.43;;;0.37;;
20928;SDS011;21895;47.072;15.132;2024-01-16T01:43:21;0.73;;;0.50;;
20928;SDS011;21895;47.072;15.132;2024-01-16T01:46:06;1.17;;;0.87;;
20928;SDS011;21895;47.072;15.132;2024-01-16T01:48:47;0.93;;;0.70;;
20928;SDS011;21895;47.072;15.132;2024-01-16T01:51:17;0.90;;;0.50;;
20928;SDS011;21895;47.072;15.132;2024-01-16T01:53:45;1.23;;;1.13;;
20928;SDS011;21895;47.072;15.132;2024-01-16T01:56:15;0.47;;;0.47;;
20928;SDS011;21895;47.072;15.132;2024-01-16T01:58:46;0.50;;;0.50;;
20928;SDS011;21895;47.072;15.132;2024-01-16T02:01:16;1.20;;;0.50;;
20928;SDS011;21895;47.072;15.132;2024-01-16T02:03:47;1.50;;;0.73;;
20928;SDS011;21895;47.072;15.132;2024-01-16T02:06:18;2.23;;;0.80;;
20928;SDS011;21895;47.072;15.132;2024-01-16T02:08:44;0.30;;;0.30;;
20928;SDS011;21895;47.072;15.132;2024-01-16T02:11:11;2.70;;;0.37;;
20928;SDS011;21895;47.072;15.132;2024-01-16T02:13:38;4.20;;;0.70;;
20928;SDS011;21895;47.072;15.132;2024-01-16T02:16:04;0.20;;;0.20;;
20928;SDS011;21895;47.072;15.132;2024-01-16T02:18:31;0.73;;;0.60;;
20928;SDS011;21895;47.072;15.132;2024-01-16T02:20:59;0.53;;;0.53;;
20928;SDS011;21895;47.072;15.132;2024-01-16T02:23:31;0.40;;;0.40;;
20928;SDS011;21895;47.072;15.132;2024-01-16T02:25:58;2.20;;;0.50;;
20928;SDS011;21895;47.072;15.132;2024-01-16T02:28:25;0.23;;;0.23;;
20928;SDS011;21895;47.072;15.132;2024-01-16T02:30:52;0.70;;;0.70;;
20928;SDS011;21895;47.072;15.132;2024-01-16T02:33:19;0.87;;;0.77;;
20928;SDS011;21895;47.072;15.132;2024-01-16T02:35:45;0.30;;;0.30;;
20928;SDS011;21895;47.072;15.132;2024-01-16T02:38:12;0.27;;;0.27;;
20928;SDS011;21895;47.072;15.132;2024-01-16T02:40:39;1.60;;;0.80;;
20928;SDS011;21895;47.072;15.132;2024-01-16T02:43:06;0.10;;;0.10;;
20928;SDS011;21895;47.072;15.132;2024-01-16T02:45:33;0.20;;;0.20;;
20928;SDS011;21895;47.072;15.132;2024-01-16T02:48:00;0.20;;;0.20;;
20928;SDS011;21895;47.072;15.132;2024-01-16T02:50:27;0.63;;;0.47;;
20928;SDS011;21895;47.072;15.132;2024-01-16T02:52:54;0.20;;;0.20;;
20928;SDS011;21895;47.072;15.132;2024-01-16T02:55:20;1.60;;;1.17;;
20928;SDS011;21895;47.072;15.132;2024-01-16T02:57:47;0.63;;;0.40;;
20928;SDS011;21895;47.072;15.132;2024-01-16T03:00:13;1.20;;;0.80;;
20928;SDS011;21895;47.072;15.132;2024-01-16T03:02:40;0.87;;;0.63;;
20928;SDS011;21895;47.072;15.132;2024-01-16T03:05:07;0.20;;;0.20;;
20928;SDS011;21895;47.072;15.132;2024-01-16T03:07:35;0.20;;;0.20;;
20928;SDS011;21895;47.072;15.132;2024-01-16T03:10:02;0.10;;;0.10;;
20928;SDS011;21895;47.072;15.132;2024-01-16T03:12:29;6.23;;;0.50;;
20928;SDS011;21895;47.072;15.132;2024-01-16T03:14:56;2.73;;;0.70;;
20928;SDS011;21895;47.072;15.132;2024-01-16T03:17:22;0.17;;;0.17;;
20928;SDS011;21895;47.072;15.132;2024-01-16T03:19:49;0.97;;;0.90;;
20928;SDS011;21895;47.072;15.132;2024-01-16T03:22:16;0.50;;;0.50;;
20928;SDS011;21895;47.072;15.132;2024-01-16T03:24:42;0.40;;;0.30;;
20928;SDS011;21895;47.072;15.132;2024-01-16T03:27:09;1.00;;;0.70;;
20928;SDS011;21895;47.072;15.132;2024-01-16T03:29:35;4.10;;;1.10;;
20928;SDS011;21895;47.072;15.132;2024-01-16T03:32:02;0.20;;;0.20;;
20928;SDS011;21895;47.072;15.132;2024-01-16T03:34:30;0.27;;;0.27;;
20928;SDS011;21895;47.072;15.132;2024-01-16T03:36:57;0.20;;;0.20;;
20928;SDS011;21895;47.072;15.132;2024-01-16T03:39:23;0.33;;;0.33;;
20928;SDS011;21895;47.072;15.132;2024-01-16T03:41:50;0.50;;;0.50;;
20928;SDS011;21895;47.072;15.132;2024-01-16T03:44:17;0.23;;;0.23;;
20928;SDS011;21895;47.072;15.132;2024-01-16T03:46:43;0.40;;;0.40;;
20928;SDS011;21895;47.072;15.132;2024-01-16T03:49:10;0.77;;;0.77;;
20928;SDS011;21895;47.072;15.132;2024-01-16T03:51:36;0.20;;;0.20;;
20928;SDS011;21895;47.072;15.132;2024-01-16T03:54:03;0.20;;;0.20;;
20928;SDS011;21895;47.072;15.132;2024-01-16T03:56:30;2.47;;;0.47;;
20928;SDS011;21895;47.072;15.132;2024-01-16T03:58:56;0.40;;;0.40;;
20928;SDS011;21895;47.072;15.132;2024-01-16T04:01:32;1.20;;;0.50;;
20928;SDS011;21895;47.072;15.132;2024-01-16T04:04:02;0.20;;;0.20;;
20928;SDS011;21895;47.072;15.132;2024-01-16T04:06:32;0.40;;;0.40;;
20928;SDS011;21895;47.072;15.132;2024-01-16T04:08:59;1.30;;;0.67;;
20928;SDS011;21895;47.072;15.132;2024-01-16T04:11:25;0.10;;;0.10;;
20928;SDS011;21895;47.072;15.132;2024-01-16T04:13:52;0.10;;;0.10;;
20928;SDS011;21895;47.072;15.132;2024-01-16T04:16:18;0.43;;;0.43;;
20928;SDS011;21895;47.072;15.132;2024-01-16T04:18:45;0.27;;;0.27;;
20928;SDS011;21895;47.072;15.132;2024-01-16T04:21:12;0.13;;;0.13;;
20928;SDS011;21895;47.072;15.132;2024-01-16T04:23:41;0.33;;;0.33;;
20928;SDS011;21895;47.072;15.132;2024-01-16T04:26:08;0.30;;;0.30;;
20928;SDS011;21895;47.072;15.132;2024-01-16T04:28:35;0.20;;;0.20;;
20928;SDS011;21895;47.072;15.132;2024-01-16T04:31:04;1.43;;;0.40;;
20928;SDS011;21895;47.072;15.132;2024-01-16T04:33:31;0.30;;;0.30;;
20928;SDS011;21895;47.072;15.132;2024-01-16T04:35:58;0.17;;;0.17;;
20928;SDS011;21895;47.072;15.132;2024-01-16T04:38:24;0.20;;;0.20;;
20928;SDS011;21895;47.072;15.132;2024-01-16T04:40:51;0.63;;;0.63;;
20928;SDS011;21895;47.072;15.132;2024-01-16T04:43:18;0.20;;;0.20;;
20928;SDS011;21895;47.072;15.132;2024-01-16T04:45:44;0.50;;;0.50;;
20928;SDS011;21895;47.072;15.132;2024-01-16T04:48:11;0.40;;;0.40;;
20928;SDS011;21895;47.072;15.132;2024-01-16T04:50:38;0.13;;;0.13;;
20928;SDS011;21895;47.072;15.132;2024-01-16T04:53:05;0.33;;;0.33;;
20928;SDS011;21895;47.072;15.132;2024-01-16T04:55:31;1.03;;;0.43;;
20928;SDS011;21895;47.072;15.132;2024-01-16T04:57:58;1.07;;;1.07;;
20928;SDS011;21895;47.072;15.132;2024-01-16T05:00:25;2.00;;;0.87;;
20928;SDS011;21895;47.072;15.132;2024-01-16T05:02:52;8.23;;;1.53;;
20928;SDS011;21895;47.072;15.132;2024-01-16T05:05:19;0.30;;;0.30;;
20928;SDS011;21895;47.072;15.132;2024-01-16T05:07:46;0.50;;;0.40;;
20928;SDS011;21895;47.072;15.132;2024-01-16T05:10:12;0.73;;;0.50;;
20928;SDS011;21895;47.072;15.132;2024-01-16T05:12:39;0.67;;;0.67;;
20928;SDS011;21895;47.072;15.132;2024-01-16T05:15:07;0.37;;;0.37;;
20928;SDS011;21895;47.072;15.132;2024-01-16T05:17:36;0.37;;;0.37;;
20928;SDS011;21895;47.072;15.132;2024-01-16T05:20:04;0.20;;;0.20;;
20928;SDS011;21895;47.072;15.132;2024-01-16T05:22:31;0.97;;;0.50;;
20928;SDS011;21895;47.072;15.132;2024-01-16T05:24:58;0.20;;;0.20;;
20928;SDS011;21895;47.072;15.132;2024-01-16T05:27:26;0.20;;;0.20;;
20928;SDS011;21895;47.072;15.132;2024-01-16T05:29:53;0.33;;;0.33;;
20928;SDS011;21895;47.072;15.132;2024-01-16T05:32:20;1.80;;;0.30;;
20928;SDS011;21895;47.072;15.132;2024-01-16T05:34:47;1.17;;;0.83;;
20928;SDS011;21895;47.072;15.132;2024-01-16T05:37:13;0.20;;;0.20;;
20928;SDS011;21895;47.072;15.132;2024-01-16T05:39:40;0.10;;;0.10;;
20928;SDS011;21895;47.072;15.132;2024-01-16T05:42:07;0.63;;;0.50;;
20928;SDS011;21895;47.072;15.132;2024-01-16T05:44:33;0.30;;;0.30;;
20928;SDS011;21895;47.072;15.132;2024-01-16T05:47:00;0.37;;;0.37;;
20928;SDS011;21895;47.072;15.132;2024-01-16T05:49:27;0.80;;;0.80;;
20928;SDS011;21895;47.072;15.132;2024-01-16T05:51:54;0.30;;;0.30;;
20928;SDS011;21895;47.072;15.132;2024-01-16T05:54:21;1.17;;;0.67;;
20928;SDS011;21895;47.072;15.132;2024-01-16T05:56:47;1.27;;;1.17;;
20928;SDS011;21895;47.072;15.132;2024-01-16T05:59:15;2.80;;;0.77;;
20928;SDS011;21895;47.072;15.132;2024-01-16T06:01:42;2.83;;;1.77;;
20928;SDS011;21895;47.072;15.132;2024-01-16T06:04:09;3.10;;;0.90;;
20928;SDS011;21895;47.072;15.132;2024-01-16T06:06:38;0.63;;;0.53;;
20928;SDS011;21895;47.072;15.132;2024-01-16T06:09:09;2.40;;;1.20;;
20928;SDS011;21895;47.072;15.132;2024-01-16T06:11:39;0.30;;;0.30;;
20928;SDS011;21895;47.072;15.132;2024-01-16T06:14:07;5.20;;;2.17;;
20928;SDS011;21895;47.072;15.132;2024-01-16T06:16:35;1.30;;;0.67;;
20928;SDS011;21895;47.072;15.132;2024-01-16T06:19:01;4.60;;;1.73;;
20928;SDS011;21895;47.072;15.132;2024-01-16T06:21:28;0.87;;;0.87;;
20928;SDS011;21895;47.072;15.132;2024-01-16T06:23:55;2.30;;;0.53;;
20928;SDS011;21895;47.072;15.132;2024-01-16T06:26:22;0.93;;;0.73;;
20928;SDS011;21895;47.072;15.132;2024-01-16T06:28:49;0.40;;;0.40;;
20928;SDS011;21895;47.072;15.132;2024-01-16T06:31:16;0.63;;;0.53;;
20928;SDS011;21895;47.072;15.132;2024-01-16T06:33:43;0.40;;;0.40;;
20928;SDS011;21895;47.072;15.132;2024-01-16T06:36:16;1.07;;;1.03;;
20928;SDS011;21895;47.072;15.132;2024-01-16T06:38:42;0.47;;;0.47;;
20928;SDS011;21895;47.072;15.132;2024-01-16T06:41:09;2.00;;;1.60;;
20928;SDS011;21895;47.072;15.132;2024-01-16T06:43:36;0.30;;;0.30;;
20928;SDS011;21895;47.072;15.132;2024-01-16T06:46:03;4.83;;;0.97;;
20928;SDS011;21895;47.072;15.132;2024-01-16T06:48:30;4.17;;;1.30;;
20928;SDS011;21895;47.072;15.132;2024-01-16T06:50:57;0.67;;;0.67;;
20928;SDS011;21895;47.072;15.132;2024-01-16T06:53:24;0.20;;;0.20;;
20928;SDS011;21895;47.072;15.132;2024-01-16T06:55:51;4.63;;;0.83;;
20928;SDS011;21895;47.072;15.132;2024-01-16T06:58:17;1.17;;;0.60;;
20928;SDS011;21895;47.072;15.132;2024-01-16T07:00:44;1.90;;;0.70;;
20928;SDS011;21895;47.072;15.132;2024-01-16T07:03:11;0.20;;;0.20;;
20928;SDS011;21895;47.072;15.132;2024-01-16T07:05:38;0.67;;;0.67;;
20928;SDS011;21895;47.072;15.132;2024-01-16T07:08:06;0.43;;;0.43;;
20928;SDS011;21895;47.072;15.132;2024-01-16T07:10:33;1.90;;;0.37;;
20928;SDS011;21895;47.072;15.132;2024-01-16T07:13:01;0.47;;;0.37;;
20928;SDS011;21895;47.072;15.132;2024-01-16T07:15:28;2.00;;;1.03;;
20928;SDS011;21895;47.072;15.132;2024-01-16T07:17:56;0.70;;;0.70;;
20928;SDS011;21895;47.072;15.132;2024-01-16T07:20:23;1.63;;;0.97;;
20928;SDS011;21895;47.072;15.132;2024-01-16T07:22:49;0.70;;;0.63;;
20928;SDS011;21895;47.072;15.132;2024-01-16T07:25:16;0.27;;;0.27;;
20928;SDS011;21895;47.072;15.132;2024-01-16T07:27:43;0.70;;;0.70;;
20928;SDS011;21895;47.072;15.132;2024-01-16T07:30:12;5.67;;;0.97;;
20928;SDS011;21895;47.072;15.132;2024-01-16T07:32:39;0.67;;;0.40;;
20928;SDS011;21895;47.072;15.132;2024-01-16T07:35:06;0.60;;;0.60;;
20928;SDS011;21895;47.072;15.132;2024-01-16T07:37:33;2.63;;;0.90;;
20928;SDS011;21895;47.072;15.132;2024-01-16T07:39:59;0.30;;;0.30;;
20928;SDS011;21895;47.072;15.132;2024-01-16T07:42:26;2.53;;;1.37;;
20928;SDS011;21895;47.072;15.132;2024-01-16T07:45:00;0.30;;;0.30;;
20928;SDS011;21895;47.072;15.132;2024-01-16T07:47:30;0.43;;;0.43;;
20928;SDS011;21895;47.072;15.132;2024-01-16T07:49:57;0.30;;;0.30;;
20928;SDS011;21895;47.072;15.132;2024-01-16T07:52:26;1.17;;;0.47;;
20928;SDS011;21895;47.072;15.132;2024-01-16T07:54:54;0.20;;;0.20;;
20928;SDS011;21895;47.072;15.132;2024-01-16T07:57:20;0.40;;;0.27;;
20928;SDS011;21895;47.072;15.132;2024-01-16T07:59:47;1.07;;;0.50;;
20928;SDS011;21895;47.072;15.132;2024-01-16T08:02:14;0.83;;;0.73;;
20928;SDS011;21895;47.072;15.132;2024-01-16T08:04:40;0.73;;;0.73;;
20928;SDS011;21895;47.072;15.132;2024-01-16T08:07:07;0.43;;;0.43;;
20928;SDS011;21895;47.072;15.132;2024-01-16T08:09:34;0.60;;;0.60;;
20928;SDS011;21895;47.072;15.132;2024-01-16T08:12:00;3.57;;;1.03;;
20928;SDS011;21895;47.072;15.132;2024-01-16T08:14:28;2.00;;;1.33;;
20928;SDS011;21895;47.072;15.132;2024-01-16T08:16:54;2.00;;;1.30;;
20928;SDS011;21895;47.072;15.132;2024-01-16T08:19:21;3.27;;;1.27;;
20928;SDS011;21895;47.072;15.132;2024-01-16T08:21:48;0.47;;;0.47;;
20928;SDS011;21895;47.072;15.132;2024-01-16T08:24:14;0.30;;;0.30;;
20928;SDS011;21895;47.072;15.132;2024-01-16T08:26:41;1.30;;;0.83;;
20928;SDS011;21895;47.072;15.132;2024-01-16T08:29:07;1.40;;;1.13;;
20928;SDS011;21895;47.072;15.132;2024-01-16T08:31:34;1.57;;;0.83;;
20928;SDS011;21895;47.072;15.132;2024-01-16T08:34:01;1.87;;;1.57;;
20928;SDS011;21895;47.072;15.132;2024-01-16T08:36:28;0.50;;;0.50;;
20928;SDS011;21895;47.072;15.132;2024-01-16T08:38:54;0.67;;;0.63;;
20928;SDS011;21895;47.072;15.132;2024-01-16T08:41:21;8.50;;;1.47;;
20928;SDS011;21895;47.072;15.132;2024-01-16T08:43:48;5.23;;;1.33;;
20928;SDS011;21895;47.072;15.132;2024-01-16T08:46:14;4.07;;;1.40;;
20928;SDS011;21895;47.072;15.132;2024-01-16T08:48:41;6.13;;;2.17;;
20928;SDS011;21895;47.072;15.132;2024-01-16T08:51:10;6.80;;;2.77;;
20928;SDS011;21895;47.072;15.132;2024-01-16T08:53:40;6.27;;;2.53;;
20928;SDS011;21895;47.072;15.132;2024-01-16T08:56:07;9.73;;;2.90;;
20928;SDS011;21895;47.072;15.132;2024-01-16T08:58:34;9.20;;;1.93;;
20928;SDS011;21895;47.072;15.132;2024-01-16T09:01:03;4.10;;;2.20;;
20928;SDS011;21895;47.072;15.132;2024-01-16T09:03:33;9.77;;;2.13;;
20928;SDS011;21895;47.072;15.132;2024-01-16T09:06:00;7.13;;;2.33;;
20928;SDS011;21895;47.072;15.132;2024-01-16T09:08:28;10.53;;;2.13;;
20928;SDS011;21895;47.072;15.132;2024-01-16T09:10:55;0.77;;;0.77;;
20928;SDS011;21895;47.072;15.132;2024-01-16T09:13:22;3.57;;;1.70;;
20928;SDS011;21895;47.072;15.132;2024-01-16T09:15:49;3.20;;;2.10;;
20928;SDS011;21895;47.072;15.132;2024-01-16T09:18:15;31.17;;;3.17;;
20928;SDS011;21895;47.072;15.132;2024-01-16T09:20:43;4.13;;;2.70;;
20928;SDS011;21895;47.072;15.132;2024-01-16T09:23:09;6.73;;;3.37;;
20928;SDS011;21895;47.072;15.132;2024-01-16T09:25:36;10.03;;;3.90;;
20928;SDS011;21895;47.072;15.132;2024-01-16T09:28:03;9.50;;;3.53;;
20928;SDS011;21895;47.072;15.132;2024-01-16T09:30:29;15.73;;;4.57;;
20928;SDS011;21895;47.072;15.132;2024-01-16T09:32:56;6.50;;;2.87;;
20928;SDS011;21895;47.072;15.132;2024-01-16T09:35:23;43.60;;;3.47;;
20928;SDS011;21895;47.072;15.132;2024-01-16T09:37:50;8.57;;;2.53;;
20928;SDS011;21895;47.072;15.132;2024-01-16T09:40:16;10.63;;;3.20;;
20928;SDS011;21895;47.072;15.132;2024-01-16T09:42:43;13.97;;;2.93;;
20928;SDS011;21895;47.072;15.132;2024-01-16T09:45:10;8.27;;;3.40;;
20928;SDS011;21895;47.072;15.132;2024-01-16T09:47:42;6.93;;;2.33;;
20928;SDS011;21895;47.072;15.132;2024-01-16T09:50:11;6.17;;;2.67;;
20928;SDS011;21895;47.072;15.132;2024-01-16T09:52:39;7.47;;;2.50;;
20928;SDS011;21895;47.072;15.132;2024-01-16T09:55:06;8.97;;;3.43;;
20928;SDS011;21895;47.072;15.132;2024-01-16T09:57:33;7.23;;;2.37;;
20928;SDS011;21895;47.072;15.132;2024-01-16T10:00:09;14.47;;;3.50;;
20928;SDS011;21895;47.072;15.132;2024-01-16T10:02:40;4.87;;;2.30;;
20928;SDS011;21895;47.072;15.132;2024-01-16T10:05:09;5.27;;;2.20;;
20928;SDS011;21895;47.072;15.132;2024-01-16T10:07:38;7.47;;;2.67;;
20928;SDS011;21895;47.072;15.132;2024-01-16T10:10:06;5.80;;;1.60;;
20928;SDS011;21895;47.072;15.132;2024-01-16T10:12:37;4.33;;;1.20;;
20928;SDS011;21895;47.072;15.132;2024-01-16T10:15:05;3.00;;;1.47;;
20928;SDS011;21895;47.072;15.132;2024-01-16T10:17:37;8.67;;;3.10;;
20928;SDS011;21895;47.072;15.132;2024-01-16T10:20:10;11.33;;;3.50;;
20928;SDS011;21895;47.072;15.132;2024-01-16T10:22:52;15.13;;;2.83;;
20928;SDS011;21895;47.072;15.132;2024-01-16T10:25:19;21.70;;;4.20;;
20928;SDS011;21895;47.072;15.132;2024-01-16T10:27:48;15.97;;;3.23;;
20928;SDS011;21895;47.072;15.132;2024-01-16T10:30:15;16.27;;;4.20;;
20928;SDS011;21895;47.072;15.132;2024-01-16T10:32:49;13.40;;;4.60;;
20928;SDS011;21895;47.072;15.132;2024-01-16T10:35:15;5.37;;;2.77;;
20928;SDS011;21895;47.072;15.132;2024-01-16T10:37:44;8.23;;;2.70;;
20928;SDS011;21895;47.072;15.132;2024-01-16T10:40:18;11.03;;;2.60;;
20928;SDS011;21895;47.072;15.132;2024-01-16T10:42:59;5.83;;;2.77;;
20928;SDS011;21895;47.072;15.132;2024-01-16T10:45:31;4.90;;;2.10;;
20928;SDS011;21895;47.072;15.132;2024-01-16T10:48:05;5.90;;;1.87;;
20928;SDS011;21895;47.072;15.132;2024-01-16T10:50:35;4.30;;;1.83;;
20928;SDS011;21895;47.072;15.132;2024-01-16T10:53:06;2.30;;;1.10;;
20928;SDS011;21895;47.072;15.132;2024-01-16T10:55:43;5.53;;;1.30;;
20928;SDS011;21895;47.072;15.132;2024-01-16T10:58:22;2.57;;;1.03;;
20928;SDS011;21895;47.072;15.132;2024-01-16T11:00:53;2.13;;;1.20;;
20928;SDS011;21895;47.072;15.132;2024-01-16T11:03:34;1.27;;;0.80;;
20928;SDS011;21895;47.072;15.132;2024-01-16T11:06:06;4.83;;;1.70;;
20928;SDS011;21895;47.072;15.132;2024-01-16T11:08:37;1.40;;;1.00;;
20928;SDS011;21895;47.072;15.132;2024-01-16T11:11:05;1.67;;;1.00;;
20928;SDS011;21895;47.072;15.132;2024-01-16T11:13:34;3.53;;;1.10;;
20928;SDS011;21895;47.072;15.132;2024-01-16T11:16:04;1.30;;;0.90;;
20928;SDS011;21895;47.072;15.132;2024-01-16T11:18:33;1.13;;;0.60;;
20928;SDS011;21895;47.072;15.132;2024-01-16T11:21:01;2.03;;;0.73;;
20928;SDS011;21895;47.072;15.132;2024-01-16T11:23:44;3.37;;;1.10;;
20928;SDS011;21895;47.072;15.132;2024-01-16T11:26:29;1.67;;;0.90;;
20928;SDS011;21895;47.072;15.132;2024-01-16T11:29:33;2.67;;;0.60;;
20928;SDS011;21895;47.072;15.132;2024-01-16T11:32:02;1.80;;;0.70;;
20928;SDS011;21895;47.072;15.132;2024-01-16T11:34:52;1.13;;;0.70;;
20928;SDS011;21895;47.072;15.132;2024-01-16T11:37:27;0.50;;;0.33;;
20928;SDS011;21895;47.072;15.132;2024-01-16T11:44:53;1.70;;;0.50;;
20928;SDS011;21895;47.072;15.132;2024-01-16T11:47:21;1.70;;;0.77;;
20928;SDS011;21895;47.072;15.132;2024-01-16T11:49:51;0.80;;;0.80;;
20928;SDS011;21895;47.072;15.132;2024-01-16T11:52:39;2.43;;;1.17;;
20928;SDS011;21895;47.072;15.132;2024-01-16T11:55:26;0.50;;;0.50;;
20928;SDS011;21895;47.072;15.132;2024-01-16T11:58:11;0.40;;;0.40;;
20928;SDS011;21895;47.072;15.132;2024-01-16T12:02:58;0.50;;;0.50;;
20928;SDS011;21895;47.072;15.132;2024-01-16T12:05:33;2.27;;;0.80;;
20928;SDS011;21895;47.072;15.132;2024-01-16T12:07:59;1.77;;;0.77;;
20928;SDS011;21895;47.072;15.132;2024-01-16T12:10:29;1.30;;;0.97;;
20928;SDS011;21895;47.072;15.132;2024-01-16T12:12:57;2.30;;;0.90;;
20928;SDS011;21895;47.072;15.132;2024-01-16T12:15:30;0.60;;;0.60;;
20928;SDS011;21895;47.072;15.132;2024-01-16T12:18:00;1.27;;;1.03;;
20928;SDS011;21895;47.072;15.132;2024-01-16T12:20:30;5.33;;;0.87;;
20928;SDS011;21895;47.072;15.132;2024-01-16T12:23:02;3.27;;;0.73;;
20928;SDS011;21895;47.072;15.132;2024-01-16T12:25:34;0.43;;;0.40;;
20928;SDS011;21895;47.072;15.132;2024-01-16T12:28:29;1.37;;;0.90;;
20928;SDS011;21895;47.072;15.132;2024-01-16T12:30:59;1.37;;;0.70;;
20928;SDS011;21895;47.072;15.132;2024-01-16T12:33:26;1.83;;;0.87;;
20928;SDS011;21895;47.072;15.132;2024-01-16T12:36:00;7.07;;;1.10;;
20928;SDS011;21895;47.072;15.132;2024-01-16T12:38:29;0.70;;;0.53;;
20928;SDS011;21895;47.072;15.132;2024-01-16T12:40:56;1.60;;;1.20;;
20928;SDS011;21895;47.072;15.132;2024-01-16T12:43:24;2.53;;;0.77;;
20928;SDS011;21895;47.072;15.132;2024-01-16T12:45:57;2.27;;;0.90;;
20928;SDS011;21895;47.072;15.132;2024-01-16T12:48:26;0.60;;;0.40;;
20928;SDS011;21895;47.072;15.132;2024-01-16T12:51:00;0.90;;;0.70;;
20928;SDS011;21895;47.072;15.132;2024-01-16T12:53:28;2.70;;;0.70;;
20928;SDS011;21895;47.072;15.132;2024-01-16T12:55:59;1.57;;;0.93;;
20928;SDS011;21895;47.072;15.132;2024-01-16T12:58:37;4.60;;;1.00;;
20928;SDS011;21895;47.072;15.132;2024-01-16T13:01:24;3.87;;;1.27;;
20928;SDS011;21895;47.072;15.132;2024-01-16T13:04:05;1.90;;;1.00;;
20928;SDS011;21895;47.072;15.132;2024-01-16T13:06:33;3.47;;;1.30;;
20928;SDS011;21895;47.072;15.132;2024-01-16T13:09:04;0.87;;;0.80;;
20928;SDS011;21895;47.072;15.132;2024-01-16T13:12:35;2.73;;;1.17;;
20928;SDS011;21895;47.072;15.132;2024-01-16T13:15:03;4.17;;;1.47;;
20928;SDS011;21895;47.072;15.132;2024-01-16T13:17:32;5.23;;;1.27;;
20928;SDS011;21895;47.072;15.132;2024-01-16T13:20:01;2.93;;;1.20;;
20928;SDS011;21895;47.072;15.132;2024-01-16T13:22:29;1.73;;;1.00;;
20928;SDS011;21895;47.072;15.132;2024-01-16T13:25:10;5.70;;;1.97;;
20928;SDS011;21895;47.072;15.132;2024-01-16T13:27:37;5.53;;;1.27;;
20928;SDS011;21895;47.072;15.132;2024-01-16T13:30:03;2.30;;;1.33;;
20928;SDS011;21895;47.072;15.132;2024-01-16T13:32:31;3.77;;;1.17;;
20928;SDS011;21895;47.072;15.132;2024-01-16T13:35:02;2.70;;;1.47;;
20928;SDS011;21895;47.072;15.132;2024-01-16T13:37:33;2.67;;;1.77;;
20928;SDS011;21895;47.072;15.132;2024-01-16T13:40:05;2.53;;;0.93;;
20928;SDS011;21895;47.072;15.132;2024-01-16T13:42:38;3.93;;;1.23;;
20928;SDS011;21895;47.072;15.132;2024-01-16T13:45:05;1.67;;;1.13;;
20928;SDS011;21895;47.072;15.132;2024-01-16T13:47:34;1.73;;;1.10;;
20928;SDS011;21895;47.072;15.132;2024-01-16T13:50:05;14.37;;;1.50;;
20928;SDS011;21895;47.072;15.132;2024-01-16T13:52:34;1.10;;;0.80;;
20928;SDS011;21895;47.072;15.132;2024-01-16T13:55:02;1.63;;;1.20;;
20928;SDS011;21895;47.072;15.132;2024-01-16T13:57:33;2.97;;;1.40;;
20928;SDS011;21895;47.072;15.132;2024-01-16T14:00:03;6.43;;;0.90;;
20928;SDS011;21895;47.072;15.132;2024-01-16T14:02:33;2.60;;;1.30;;
20928;SDS011;21895;47.072;15.132;2024-01-16T14:05:04;6.60;;;1.60;;
20928;SDS011;21895;47.072;15.132;2024-01-16T14:07:31;1.70;;;0.93;;
20928;SDS011;21895;47.072;15.132;2024-01-16T14:09:58;4.27;;;1.60;;
20928;SDS011;21895;47.072;15.132;2024-01-16T14:12:24;2.33;;;1.00;;
20928;SDS011;21895;47.072;15.132;2024-01-16T14:14:51;2.57;;;1.10;;
20928;SDS011;21895;47.072;15.132;2024-01-16T14:17:18;2.47;;;1.20;;
20928;SDS011;21895;47.072;15.132;2024-01-16T14:19:44;2.23;;;1.37;;
20928;SDS011;21895;47.072;15.132;2024-01-16T14:22:11;3.27;;;1.43;;
20928;SDS011;21895;47.072;15.132;2024-01-16T14:24:38;3.33;;;1.43;;
20928;SDS011;21895;47.072;15.132;2024-01-16T14:27:04;8.70;;;2.17;;
20928;SDS011;21895;47.072;15.132;2024-01-16T14:29:32;4.70;;;1.10;;
20928;SDS011;21895;47.072;15.132;2024-01-16T14:32:02;1.40;;;0.90;;
20928;SDS011;21895;47.072;15.132;2024-01-16T14:34:29;2.67;;;1.33;;
20928;SDS011;21895;47.072;15.132;2024-01-16T14:36:56;4.33;;;1.43;;
20928;SDS011;21895;47.072;15.132;2024-01-16T14:39:22;14.40;;;1.57;;
20928;SDS011;21895;47.072;15.132;2024-01-16T14:41:50;4.93;;;1.37;;
20928;SDS011;21895;47.072;15.132;2024-01-16T14:44:19;2.00;;;1.30;;
20928;SDS011;21895;47.072;15.132;2024-01-16T14:46:46;3.47;;;1.70;;
20928;SDS011;21895;47.072;15.132;2024-01-16T14:49:18;3.83;;;1.33;;